Historyczne dane pomiarowe

Dodano dane terminowe – wersja testowa.

Dane z okresu 1951-2019

Wersja bazy: 1.34 [2019-03-16, lista zmian], aktualizacja planowana na 2019-04-15

Dane meteo z obszaru Polski uzyskane na podstawie danych udostępnionych przez Instytut Meteorologii i Gospodarki Wodnej – Państwowy Instytut Badawczy.

 

Wybierz Datę:    

       

TemperaturaWilgotnośćWiatrCiśnienieOpadyŚniegCzas trwania zjawisk
 Stacja t tx tn tng RH VA  wxwx mslp ppp RRR   cm mm wxwxwxwxwxwxwx
2015-09-11 13.0 19.8 6.9 5.1-- 5.3----- 0.0------------
2015-09-12 12.5 16.3 9.4 8.0-- 8.0----- 1.3------------
2015-09-13 13.8 17.8 10.4 9.0-- 6.7----- 0.0------------
2015-09-14 13.8 18.8 8.4 6.1-- 5.7----- 2.0------------
2015-09-15 18.5 23.3 14.4 14.2-- 7.7----- 0.7------------
2015-09-16 20.6 26.8 15.4 13.1-- 6.3----- 0.0------------
2015-09-17 23.1 29.8 17.9 17.3-- 5.3----- 0.0------------
2015-09-18 19.2 25.6 15.9 12.1-- 5.7----- 0.0------------
2015-09-19 16.5 21.8 12.4 10.0-- 5.3----- 0.0------------
2015-09-20 12.1 18.2 7.4 3.1-- 7.7----- 3.0------------
2015-09-21 10.1 13.8 6.9 5.1-- 6.3----- 0.0------------
2015-09-22 9.7 18.3 2.5 -0.8-- 6.3----- 0.0------------
2015-09-23 14.5 21.3 8.9 6.1-- 4.0----- 0.0------------
2015-09-24 16.8 24.3 10.4 7.1-- 4.0----- 7.7------------
2015-09-25 15.9 20.4 13.4 12.1-- 8.0----- 3.0------------
2015-09-26 13.6 15.7 12.4 11.0-- 8.0----- 0.0------------
2015-09-27 11.1 15.3 7.4 5.1-- 4.0----- 0.0------------
2015-09-28 9.4 14.8 5.0 2.2-- 4.0----- 0.0------------
2015-09-29 9.0 13.8 4.5 -0.8-- 5.3----- 0.0------------
2015-09-30 9.9 14.8 6.4 4.1-- 3.0----- 0.0------------
2015-10-01 8.1 15.8 0.5 3.1-- 2.7----- 0.0------------
2015-10-02 10.7 17.3 5.0 1.2-- 4.3----- 0.0------------
2015-10-03 9.5 18.8 2.0 -5.5-- 3.3----- 0.0------------
2015-10-04 11.9 22.3 4.0 -1.9-- 2.7----- 0.0------------
2015-10-05 12.2 19.8 6.9 2.6-- 3.0----- 0.0------------
2015-10-06 11.2 15.3 8.9 3.6-- 8.0----- 0.0------------
2015-10-07 3.3 10.3 -1.5 -3.9-- 2.3----- 0.0------------
2015-10-08 2.0 9.8 -4.1 -9.6-- 2.0----- 0.0------------
2015-10-09 0.0 8.3 -6.1-10.1-- 2.0----- 0.0------------
2015-10-10 -0.8 8.3 -8.6-13.4-- 1.3----- 0.0------------
81.3 ms

 

Źródłem pochodzenia danych jest Instytut Meteorologii i Gospodarki Wodnej – Państwowy Instytut Badawczy. Dane Instytutu Meteorologii i Gospodarki Wodnej – Państwowego Instytutu Badawczego zostały przetworzone.

Dane źródłowe można odnaleźć na stronie https://dane.imgw.pl